sensor_id;sensor_type;location;lat;lon;timestamp;P1;durP1;ratioP1;P2;durP2;ratioP2
67514;SDS011;60646;55.802;37.032;2022-07-01T00:02:20;2.13;;;1.45;;
67514;SDS011;60646;55.802;37.032;2022-07-01T00:04:46;2.53;;;1.65;;
67514;SDS011;60646;55.802;37.032;2022-07-01T00:07:30;3.55;;;1.48;;
67514;SDS011;60646;55.802;37.032;2022-07-01T00:09:55;2.30;;;1.38;;
67514;SDS011;60646;55.802;37.032;2022-07-01T00:12:21;2.40;;;1.38;;
67514;SDS011;60646;55.802;37.032;2022-07-01T00:14:47;2.03;;;1.45;;
67514;SDS011;60646;55.802;37.032;2022-07-01T00:17:13;2.60;;;1.60;;
67514;SDS011;60646;55.802;37.032;2022-07-01T00:19:39;2.75;;;1.50;;
67514;SDS011;60646;55.802;37.032;2022-07-01T00:22:04;2.35;;;1.33;;
67514;SDS011;60646;55.802;37.032;2022-07-01T00:24:31;2.67;;;1.90;;
67514;SDS011;60646;55.802;37.032;2022-07-01T00:26:56;2.45;;;1.55;;
67514;SDS011;60646;55.802;37.032;2022-07-01T00:29:22;2.38;;;1.50;;
67514;SDS011;60646;55.802;37.032;2022-07-01T00:31:48;2.58;;;1.27;;
67514;SDS011;60646;55.802;37.032;2022-07-01T00:34:14;3.00;;;1.70;;
67514;SDS011;60646;55.802;37.032;2022-07-01T00:36:39;2.10;;;1.45;;
67514;SDS011;60646;55.802;37.032;2022-07-01T00:39:05;3.60;;;1.48;;
67514;SDS011;60646;55.802;37.032;2022-07-01T00:41:31;2.08;;;1.48;;
67514;SDS011;60646;55.802;37.032;2022-07-01T00:43:57;2.35;;;1.60;;
67514;SDS011;60646;55.802;37.032;2022-07-01T00:46:23;2.25;;;1.48;;
67514;SDS011;60646;55.802;37.032;2022-07-01T00:48:50;3.60;;;1.70;;
67514;SDS011;60646;55.802;37.032;2022-07-01T00:51:20;3.17;;;1.58;;
67514;SDS011;60646;55.802;37.032;2022-07-01T00:53:46;2.03;;;1.52;;
67514;SDS011;60646;55.802;37.032;2022-07-01T00:56:12;2.08;;;1.60;;
67514;SDS011;60646;55.802;37.032;2022-07-01T00:58:38;2.40;;;1.67;;
67514;SDS011;60646;55.802;37.032;2022-07-01T01:01:05;2.17;;;1.70;;
67514;SDS011;60646;55.802;37.032;2022-07-01T01:03:30;2.75;;;1.42;;
67514;SDS011;60646;55.802;37.032;2022-07-01T01:05:56;2.75;;;1.50;;
67514;SDS011;60646;55.802;37.032;2022-07-01T01:08:23;1.65;;;1.30;;
67514;SDS011;60646;55.802;37.032;2022-07-01T01:10:51;2.60;;;1.58;;
67514;SDS011;60646;55.802;37.032;2022-07-01T01:13:17;3.92;;;1.60;;
67514;SDS011;60646;55.802;37.032;2022-07-01T01:15:43;3.03;;;1.80;;
67514;SDS011;60646;55.802;37.032;2022-07-01T01:18:09;3.33;;;1.77;;
67514;SDS011;60646;55.802;37.032;2022-07-01T01:20:35;3.13;;;1.52;;
67514;SDS011;60646;55.802;37.032;2022-07-01T01:23:02;3.03;;;1.65;;
67514;SDS011;60646;55.802;37.032;2022-07-01T01:25:30;2.55;;;1.65;;
67514;SDS011;60646;55.802;37.032;2022-07-01T01:28:02;3.20;;;1.60;;
67514;SDS011;60646;55.802;37.032;2022-07-01T01:30:28;2.28;;;1.40;;
67514;SDS011;60646;55.802;37.032;2022-07-01T01:32:54;2.30;;;1.48;;
67514;SDS011;60646;55.802;37.032;2022-07-01T01:35:20;3.38;;;1.75;;
67514;SDS011;60646;55.802;37.032;2022-07-01T01:37:47;2.35;;;1.38;;
67514;SDS011;60646;55.802;37.032;2022-07-01T01:40:12;2.95;;;1.40;;
67514;SDS011;60646;55.802;37.032;2022-07-01T01:42:44;1.80;;;1.20;;
67514;SDS011;60646;55.802;37.032;2022-07-01T01:45:11;2.70;;;1.50;;
67514;SDS011;60646;55.802;37.032;2022-07-01T01:47:37;2.42;;;1.33;;
67514;SDS011;60646;55.802;37.032;2022-07-01T01:50:04;1.77;;;1.48;;
67514;SDS011;60646;55.802;37.032;2022-07-01T01:52:31;3.45;;;1.60;;
67514;SDS011;60646;55.802;37.032;2022-07-01T01:54:58;3.22;;;2.00;;
67514;SDS011;60646;55.802;37.032;2022-07-01T01:57:24;2.67;;;1.67;;
67514;SDS011;60646;55.802;37.032;2022-07-01T01:59:50;3.90;;;1.38;;
67514;SDS011;60646;55.802;37.032;2022-07-01T02:02:16;2.85;;;1.77;;
67514;SDS011;60646;55.802;37.032;2022-07-01T02:04:42;2.70;;;1.67;;
67514;SDS011;60646;55.802;37.032;2022-07-01T02:07:08;3.00;;;1.73;;
67514;SDS011;60646;55.802;37.032;2022-07-01T02:09:34;3.15;;;1.85;;
67514;SDS011;60646;55.802;37.032;2022-07-01T02:11:59;2.13;;;1.70;;
67514;SDS011;60646;55.802;37.032;2022-07-01T02:14:25;3.50;;;1.80;;
67514;SDS011;60646;55.802;37.032;2022-07-01T02:16:52;2.80;;;1.98;;
67514;SDS011;60646;55.802;37.032;2022-07-01T02:19:18;2.65;;;1.60;;
67514;SDS011;60646;55.802;37.032;2022-07-01T02:21:44;3.25;;;1.73;;
67514;SDS011;60646;55.802;37.032;2022-07-01T02:24:10;2.10;;;1.38;;
67514;SDS011;60646;55.802;37.032;2022-07-01T02:26:35;2.08;;;1.45;;
67514;SDS011;60646;55.802;37.032;2022-07-01T02:29:01;2.72;;;1.52;;
67514;SDS011;60646;55.802;37.032;2022-07-01T02:31:27;2.05;;;1.50;;
67514;SDS011;60646;55.802;37.032;2022-07-01T02:33:53;2.35;;;1.58;;
67514;SDS011;60646;55.802;37.032;2022-07-01T02:36:18;3.13;;;1.55;;
67514;SDS011;60646;55.802;37.032;2022-07-01T02:38:44;3.47;;;1.55;;
67514;SDS011;60646;55.802;37.032;2022-07-01T02:41:10;3.50;;;1.80;;
67514;SDS011;60646;55.802;37.032;2022-07-01T02:43:36;2.55;;;1.38;;
67514;SDS011;60646;55.802;37.032;2022-07-01T02:46:02;2.40;;;1.45;;
67514;SDS011;60646;55.802;37.032;2022-07-01T02:48:27;1.73;;;1.35;;
67514;SDS011;60646;55.802;37.032;2022-07-01T02:50:53;2.42;;;1.50;;
67514;SDS011;60646;55.802;37.032;2022-07-01T02:53:38;2.47;;;1.40;;
67514;SDS011;60646;55.802;37.032;2022-07-01T02:56:04;1.83;;;1.52;;
67514;SDS011;60646;55.802;37.032;2022-07-01T02:58:30;3.58;;;1.60;;
67514;SDS011;60646;55.802;37.032;2022-07-01T03:00:55;4.38;;;1.63;;
67514;SDS011;60646;55.802;37.032;2022-07-01T03:03:21;3.65;;;1.70;;
67514;SDS011;60646;55.802;37.032;2022-07-01T03:05:47;2.35;;;1.58;;
67514;SDS011;60646;55.802;37.032;2022-07-01T03:08:14;1.98;;;1.42;;
67514;SDS011;60646;55.802;37.032;2022-07-01T03:10:40;4.13;;;1.75;;
67514;SDS011;60646;55.802;37.032;2022-07-01T03:13:05;2.00;;;1.42;;
67514;SDS011;60646;55.802;37.032;2022-07-01T03:15:31;3.45;;;1.60;;
67514;SDS011;60646;55.802;37.032;2022-07-01T03:17:57;3.38;;;1.90;;
67514;SDS011;60646;55.802;37.032;2022-07-01T03:20:23;4.47;;;1.58;;
67514;SDS011;60646;55.802;37.032;2022-07-01T03:22:48;4.55;;;1.98;;
67514;SDS011;60646;55.802;37.032;2022-07-01T03:25:15;2.60;;;1.60;;
67514;SDS011;60646;55.802;37.032;2022-07-01T03:27:42;2.50;;;1.70;;
67514;SDS011;60646;55.802;37.032;2022-07-01T03:30:27;2.60;;;1.48;;
67514;SDS011;60646;55.802;37.032;2022-07-01T03:33:30;3.22;;;1.40;;
67514;SDS011;60646;55.802;37.032;2022-07-01T03:35:56;3.17;;;1.70;;
67514;SDS011;60646;55.802;37.032;2022-07-01T03:38:22;2.05;;;1.50;;
67514;SDS011;60646;55.802;37.032;2022-07-01T03:40:47;2.47;;;1.42;;
67514;SDS011;60646;55.802;37.032;2022-07-01T03:43:13;1.88;;;1.50;;
67514;SDS011;60646;55.802;37.032;2022-07-01T03:45:39;2.00;;;1.30;;
67514;SDS011;60646;55.802;37.032;2022-07-01T03:48:05;5.03;;;1.60;;
67514;SDS011;60646;55.802;37.032;2022-07-01T03:50:31;2.15;;;1.27;;
67514;SDS011;60646;55.802;37.032;2022-07-01T03:52:57;3.13;;;1.20;;
67514;SDS011;60646;55.802;37.032;2022-07-01T03:55:41;2.45;;;1.40;;
67514;SDS011;60646;55.802;37.032;2022-07-01T03:58:09;3.20;;;1.50;;
67514;SDS011;60646;55.802;37.032;2022-07-01T04:00:35;1.65;;;1.40;;
67514;SDS011;60646;55.802;37.032;2022-07-01T04:03:06;2.35;;;1.33;;
67514;SDS011;60646;55.802;37.032;2022-07-01T04:05:33;2.05;;;1.30;;
67514;SDS011;60646;55.802;37.032;2022-07-01T04:08:01;3.45;;;1.27;;
67514;SDS011;60646;55.802;37.032;2022-07-01T04:10:29;3.40;;;1.35;;
67514;SDS011;60646;55.802;37.032;2022-07-01T04:12:59;1.90;;;1.50;;
67514;SDS011;60646;55.802;37.032;2022-07-01T04:15:26;1.95;;;1.13;;
67514;SDS011;60646;55.802;37.032;2022-07-01T04:17:52;2.30;;;1.20;;
67514;SDS011;60646;55.802;37.032;2022-07-01T04:20:21;2.08;;;1.15;;
67514;SDS011;60646;55.802;37.032;2022-07-01T04:22:46;2.13;;;1.25;;
67514;SDS011;60646;55.802;37.032;2022-07-01T04:25:12;3.80;;;1.10;;
67514;SDS011;60646;55.802;37.032;2022-07-01T04:27:38;1.55;;;1.17;;
67514;SDS011;60646;55.802;37.032;2022-07-01T04:30:04;2.15;;;1.20;;
67514;SDS011;60646;55.802;37.032;2022-07-01T04:32:31;2.58;;;1.38;;
67514;SDS011;60646;55.802;37.032;2022-07-01T04:34:57;2.20;;;1.33;;
67514;SDS011;60646;55.802;37.032;2022-07-01T04:37:23;2.45;;;1.40;;
67514;SDS011;60646;55.802;37.032;2022-07-01T04:39:49;3.00;;;1.20;;
67514;SDS011;60646;55.802;37.032;2022-07-01T04:42:33;2.80;;;1.15;;
67514;SDS011;60646;55.802;37.032;2022-07-01T04:44:59;2.85;;;1.30;;
67514;SDS011;60646;55.802;37.032;2022-07-01T04:47:24;2.08;;;1.00;;
67514;SDS011;60646;55.802;37.032;2022-07-01T04:49:50;2.60;;;1.00;;
67514;SDS011;60646;55.802;37.032;2022-07-01T04:52:16;1.13;;;1.00;;
67514;SDS011;60646;55.802;37.032;2022-07-01T04:54:42;1.60;;;1.02;;
67514;SDS011;60646;55.802;37.032;2022-07-01T04:57:08;1.60;;;1.05;;
67514;SDS011;60646;55.802;37.032;2022-07-01T04:59:33;2.05;;;1.00;;
67514;SDS011;60646;55.802;37.032;2022-07-01T05:01:59;3.10;;;1.05;;
67514;SDS011;60646;55.802;37.032;2022-07-01T05:04:26;2.95;;;1.00;;
67514;SDS011;60646;55.802;37.032;2022-07-01T05:06:53;2.85;;;1.25;;
67514;SDS011;60646;55.802;37.032;2022-07-01T05:09:19;3.55;;;1.40;;
67514;SDS011;60646;55.802;37.032;2022-07-01T05:11:50;2.67;;;0.80;;
67514;SDS011;60646;55.802;37.032;2022-07-01T05:14:16;4.30;;;1.10;;
67514;SDS011;60646;55.802;37.032;2022-07-01T05:16:42;1.48;;;0.95;;
67514;SDS011;60646;55.802;37.032;2022-07-01T05:19:08;1.92;;;0.80;;
67514;SDS011;60646;55.802;37.032;2022-07-01T05:22:36;1.98;;;0.80;;
67514;SDS011;60646;55.802;37.032;2022-07-01T05:25:02;1.08;;;0.88;;
67514;SDS011;60646;55.802;37.032;2022-07-01T05:27:30;1.20;;;0.80;;
67514;SDS011;60646;55.802;37.032;2022-07-01T05:29:56;1.88;;;1.00;;
67514;SDS011;60646;55.802;37.032;2022-07-01T05:32:22;1.75;;;0.90;;
67514;SDS011;60646;55.802;37.032;2022-07-01T05:34:48;1.45;;;0.80;;
67514;SDS011;60646;55.802;37.032;2022-07-01T05:37:13;2.10;;;0.90;;
67514;SDS011;60646;55.802;37.032;2022-07-01T05:39:42;1.50;;;0.90;;
67514;SDS011;60646;55.802;37.032;2022-07-01T05:42:07;3.05;;;1.00;;
67514;SDS011;60646;55.802;37.032;2022-07-01T05:44:33;6.18;;;1.10;;
67514;SDS011;60646;55.802;37.032;2022-07-01T05:46:59;1.77;;;0.90;;
67514;SDS011;60646;55.802;37.032;2022-07-01T05:49:24;1.65;;;0.80;;
67514;SDS011;60646;55.802;37.032;2022-07-01T05:51:50;1.52;;;1.05;;
67514;SDS011;60646;55.802;37.032;2022-07-01T05:54:16;2.80;;;0.77;;
67514;SDS011;60646;55.802;37.032;2022-07-01T05:56:41;0.90;;;0.80;;
67514;SDS011;60646;55.802;37.032;2022-07-01T05:59:08;1.05;;;0.63;;
67514;SDS011;60646;55.802;37.032;2022-07-01T06:01:34;7.22;;;1.10;;
67514;SDS011;60646;55.802;37.032;2022-07-01T06:03:59;3.85;;;0.90;;
67514;SDS011;60646;55.802;37.032;2022-07-01T06:06:26;2.15;;;0.85;;
67514;SDS011;60646;55.802;37.032;2022-07-01T06:08:52;1.15;;;0.70;;
67514;SDS011;60646;55.802;37.032;2022-07-01T06:11:17;2.78;;;0.70;;
67514;SDS011;60646;55.802;37.032;2022-07-01T06:13:43;25.48;;;1.52;;
67514;SDS011;60646;55.802;37.032;2022-07-01T06:16:09;4.63;;;0.82;;
67514;SDS011;60646;55.802;37.032;2022-07-01T06:18:34;2.72;;;0.90;;
67514;SDS011;60646;55.802;37.032;2022-07-01T06:21:00;5.55;;;0.82;;
67514;SDS011;60646;55.802;37.032;2022-07-01T06:23:44;5.38;;;0.90;;
67514;SDS011;60646;55.802;37.032;2022-07-01T06:26:11;2.40;;;0.60;;
67514;SDS011;60646;55.802;37.032;2022-07-01T06:28:37;0.85;;;0.60;;
67514;SDS011;60646;55.802;37.032;2022-07-01T06:31:02;1.40;;;0.80;;
67514;SDS011;60646;55.802;37.032;2022-07-01T06:33:28;1.85;;;0.68;;
67514;SDS011;60646;55.802;37.032;2022-07-01T06:35:56;4.55;;;0.77;;
67514;SDS011;60646;55.802;37.032;2022-07-01T06:38:23;2.80;;;1.10;;
67514;SDS011;60646;55.802;37.032;2022-07-01T06:40:49;2.17;;;0.80;;
67514;SDS011;60646;55.802;37.032;2022-07-01T06:43:59;3.70;;;0.70;;
67514;SDS011;60646;55.802;37.032;2022-07-01T06:46:26;1.05;;;0.60;;
67514;SDS011;60646;55.802;37.032;2022-07-01T06:48:52;4.20;;;1.00;;
67514;SDS011;60646;55.802;37.032;2022-07-01T06:51:19;1.50;;;0.73;;
67514;SDS011;60646;55.802;37.032;2022-07-01T06:53:44;2.22;;;1.20;;
67514;SDS011;60646;55.802;37.032;2022-07-01T06:56:12;6.05;;;0.98;;
67514;SDS011;60646;55.802;37.032;2022-07-01T06:58:38;1.98;;;0.80;;
67514;SDS011;60646;55.802;37.032;2022-07-01T07:01:05;7.55;;;1.10;;
67514;SDS011;60646;55.802;37.032;2022-07-01T07:03:31;1.45;;;0.80;;
67514;SDS011;60646;55.802;37.032;2022-07-01T07:05:58;0.60;;;0.60;;
67514;SDS011;60646;55.802;37.032;2022-07-01T07:08:30;7.28;;;0.70;;
67514;SDS011;60646;55.802;37.032;2022-07-01T07:10:57;1.52;;;0.65;;
67514;SDS011;60646;55.802;37.032;2022-07-01T07:13:23;7.13;;;0.80;;
67514;SDS011;60646;55.802;37.032;2022-07-01T07:15:49;4.57;;;1.00;;
67514;SDS011;60646;55.802;37.032;2022-07-01T07:18:15;8.60;;;1.52;;
67514;SDS011;60646;55.802;37.032;2022-07-01T07:20:42;1.30;;;0.80;;
67514;SDS011;60646;55.802;37.032;2022-07-01T07:25:56;2.00;;;0.60;;
67514;SDS011;60646;55.802;37.032;2022-07-01T07:28:22;1.38;;;0.70;;
67514;SDS011;60646;55.802;37.032;2022-07-01T07:30:48;3.92;;;0.70;;
67514;SDS011;60646;55.802;37.032;2022-07-01T07:33:14;16.65;;;2.03;;
67514;SDS011;60646;55.802;37.032;2022-07-01T07:35:40;3.95;;;0.80;;
67514;SDS011;60646;55.802;37.032;2022-07-01T07:38:05;1.08;;;0.70;;
67514;SDS011;60646;55.802;37.032;2022-07-01T07:40:33;3.83;;;1.05;;
67514;SDS011;60646;55.802;37.032;2022-07-01T07:42:59;7.20;;;1.00;;
67514;SDS011;60646;55.802;37.032;2022-07-01T07:45:25;10.43;;;1.30;;
67514;SDS011;60646;55.802;37.032;2022-07-01T07:47:51;1.85;;;0.88;;
67514;SDS011;60646;55.802;37.032;2022-07-01T07:50:20;25.98;;;2.50;;
67514;SDS011;60646;55.802;37.032;2022-07-01T07:52:46;1.40;;;0.63;;
67514;SDS011;60646;55.802;37.032;2022-07-01T07:55:12;1.50;;;0.65;;
67514;SDS011;60646;55.802;37.032;2022-07-01T07:57:38;1.05;;;0.57;;
67514;SDS011;60646;55.802;37.032;2022-07-01T08:00:06;2.40;;;0.70;;
67514;SDS011;60646;55.802;37.032;2022-07-01T08:02:40;1.30;;;0.63;;
67514;SDS011;60646;55.802;37.032;2022-07-01T08:05:06;2.60;;;0.70;;
67514;SDS011;60646;55.802;37.032;2022-07-01T08:07:39;0.70;;;0.57;;
67514;SDS011;60646;55.802;37.032;2022-07-01T08:10:07;1.83;;;0.57;;
67514;SDS011;60646;55.802;37.032;2022-07-01T08:12:53;1.02;;;0.55;;
67514;SDS011;60646;55.802;37.032;2022-07-01T08:15:18;3.85;;;0.77;;
67514;SDS011;60646;55.802;37.032;2022-07-01T08:17:44;3.83;;;0.50;;
67514;SDS011;60646;55.802;37.032;2022-07-01T08:20:10;1.48;;;0.90;;
67514;SDS011;60646;55.802;37.032;2022-07-01T08:22:36;1.42;;;0.70;;
67514;SDS011;60646;55.802;37.032;2022-07-01T08:25:02;2.67;;;0.77;;
67514;SDS011;60646;55.802;37.032;2022-07-01T08:27:29;1.05;;;0.55;;
67514;SDS011;60646;55.802;37.032;2022-07-01T08:29:54;0.63;;;0.55;;
67514;SDS011;60646;55.802;37.032;2022-07-01T08:32:20;1.33;;;0.50;;
67514;SDS011;60646;55.802;37.032;2022-07-01T08:34:47;1.08;;;0.60;;
67514;SDS011;60646;55.802;37.032;2022-07-01T08:37:13;1.50;;;0.60;;
67514;SDS011;60646;55.802;37.032;2022-07-01T08:39:38;3.65;;;0.52;;
67514;SDS011;60646;55.802;37.032;2022-07-01T08:42:04;0.63;;;0.50;;
67514;SDS011;60646;55.802;37.032;2022-07-01T08:44:32;4.32;;;0.40;;
67514;SDS011;60646;55.802;37.032;2022-07-01T08:47:17;0.57;;;0.47;;
67514;SDS011;60646;55.802;37.032;2022-07-01T08:49:43;1.67;;;0.60;;
67514;SDS011;60646;55.802;37.032;2022-07-01T08:52:29;1.30;;;0.55;;
67514;SDS011;60646;55.802;37.032;2022-07-01T08:54:55;1.08;;;0.60;;
67514;SDS011;60646;55.802;37.032;2022-07-01T08:57:23;1.02;;;0.60;;
67514;SDS011;60646;55.802;37.032;2022-07-01T09:00:03;1.55;;;0.60;;
67514;SDS011;60646;55.802;37.032;2022-07-01T09:05:28;0.40;;;0.40;;
67514;SDS011;60646;55.802;37.032;2022-07-01T09:07:56;2.78;;;0.70;;
67514;SDS011;60646;55.802;37.032;2022-07-01T09:10:27;0.75;;;0.60;;
67514;SDS011;60646;55.802;37.032;2022-07-01T09:12:56;2.05;;;0.60;;
67514;SDS011;60646;55.802;37.032;2022-07-01T09:15:29;0.55;;;0.50;;
67514;SDS011;60646;55.802;37.032;2022-07-01T09:20:35;0.40;;;0.40;;
67514;SDS011;60646;55.802;37.032;2022-07-01T09:25:36;6.57;;;0.50;;
67514;SDS011;60646;55.802;37.032;2022-07-01T09:28:12;1.00;;;0.52;;
67514;SDS011;60646;55.802;37.032;2022-07-01T09:30:52;0.88;;;0.60;;
67514;SDS011;60646;55.802;37.032;2022-07-01T09:33:20;0.95;;;0.60;;
67514;SDS011;60646;55.802;37.032;2022-07-01T09:35:49;1.58;;;0.60;;
67514;SDS011;60646;55.802;37.032;2022-07-01T09:38:17;1.05;;;0.43;;
67514;SDS011;60646;55.802;37.032;2022-07-01T09:40:51;2.17;;;0.70;;
67514;SDS011;60646;55.802;37.032;2022-07-01T09:43:26;5.50;;;0.95;;
67514;SDS011;60646;55.802;37.032;2022-07-01T09:50:58;1.00;;;0.43;;
67514;SDS011;60646;55.802;37.032;2022-07-01T09:53:24;1.02;;;0.60;;
67514;SDS011;60646;55.802;37.032;2022-07-01T09:55:50;0.52;;;0.50;;
67514;SDS011;60646;55.802;37.032;2022-07-01T09:58:16;1.10;;;0.40;;
67514;SDS011;60646;55.802;37.032;2022-07-01T10:00:42;0.73;;;0.40;;
67514;SDS011;60646;55.802;37.032;2022-07-01T10:03:09;0.50;;;0.45;;
67514;SDS011;60646;55.802;37.032;2022-07-01T10:14:05;0.60;;;0.60;;
67514;SDS011;60646;55.802;37.032;2022-07-01T10:16:32;1.48;;;0.50;;
67514;SDS011;60646;55.802;37.032;2022-07-01T10:19:05;5.25;;;0.70;;
67514;SDS011;60646;55.802;37.032;2022-07-01T10:21:52;2.92;;;0.43;;
67514;SDS011;60646;55.802;37.032;2022-07-01T10:24:22;0.70;;;0.50;;
67514;SDS011;60646;55.802;37.032;2022-07-01T10:26:50;1.23;;;0.70;;
67514;SDS011;60646;55.802;37.032;2022-07-01T10:29:32;6.28;;;0.55;;
67514;SDS011;60646;55.802;37.032;2022-07-01T10:32:01;0.73;;;0.52;;
67514;SDS011;60646;55.802;37.032;2022-07-01T10:34:36;1.60;;;0.50;;
67514;SDS011;60646;55.802;37.032;2022-07-01T10:37:06;0.55;;;0.52;;
67514;SDS011;60646;55.802;37.032;2022-07-01T10:42:19;0.85;;;0.50;;
67514;SDS011;60646;55.802;37.032;2022-07-01T10:45:01;0.68;;;0.50;;
67514;SDS011;60646;55.802;37.032;2022-07-01T10:47:32;6.30;;;1.02;;
67514;SDS011;60646;55.802;37.032;2022-07-01T10:52:33;1.42;;;0.50;;
67514;SDS011;60646;55.802;37.032;2022-07-01T10:55:00;1.58;;;0.65;;
67514;SDS011;60646;55.802;37.032;2022-07-01T10:57:37;2.22;;;0.98;;
67514;SDS011;60646;55.802;37.032;2022-07-01T11:02:31;3.25;;;0.70;;
67514;SDS011;60646;55.802;37.032;2022-07-01T11:07:32;0.90;;;0.70;;
67514;SDS011;60646;55.802;37.032;2022-07-01T11:09:59;2.45;;;0.93;;
67514;SDS011;60646;55.802;37.032;2022-07-01T11:12:29;0.80;;;0.60;;
67514;SDS011;60646;55.802;37.032;2022-07-01T11:14:55;2.40;;;0.75;;
67514;SDS011;60646;55.802;37.032;2022-07-01T11:17:28;0.90;;;0.68;;
67514;SDS011;60646;55.802;37.032;2022-07-01T11:19:54;0.73;;;0.50;;
67514;SDS011;60646;55.802;37.032;2022-07-01T11:22:30;3.28;;;0.60;;
67514;SDS011;60646;55.802;37.032;2022-07-01T11:25:19;1.42;;;0.88;;
67514;SDS011;60646;55.802;37.032;2022-07-01T11:27:46;0.82;;;0.60;;
67514;SDS011;60646;55.802;37.032;2022-07-01T11:30:15;1.48;;;0.80;;
67514;SDS011;60646;55.802;37.032;2022-07-01T11:32:43;0.90;;;0.60;;
67514;SDS011;60646;55.802;37.032;2022-07-01T11:35:21;2.47;;;0.55;;
67514;SDS011;60646;55.802;37.032;2022-07-01T11:40:57;0.80;;;0.57;;
67514;SDS011;60646;55.802;37.032;2022-07-01T11:43:26;0.98;;;0.60;;
67514;SDS011;60646;55.802;37.032;2022-07-01T11:45:54;0.85;;;0.50;;
67514;SDS011;60646;55.802;37.032;2022-07-01T11:48:28;2.75;;;0.60;;
67514;SDS011;60646;55.802;37.032;2022-07-01T11:50:59;0.85;;;0.60;;
67514;SDS011;60646;55.802;37.032;2022-07-01T11:53:27;1.42;;;0.70;;
67514;SDS011;60646;55.802;37.032;2022-07-01T11:55:53;1.85;;;0.70;;
67514;SDS011;60646;55.802;37.032;2022-07-01T11:58:19;2.13;;;0.50;;
67514;SDS011;60646;55.802;37.032;2022-07-01T12:00:44;1.40;;;0.70;;
67514;SDS011;60646;55.802;37.032;2022-07-01T12:03:10;2.65;;;0.70;;
67514;SDS011;60646;55.802;37.032;2022-07-01T12:05:36;1.65;;;0.60;;
67514;SDS011;60646;55.802;37.032;2022-07-01T12:08:03;0.80;;;0.70;;
67514;SDS011;60646;55.802;37.032;2022-07-01T12:10:29;2.80;;;0.80;;
67514;SDS011;60646;55.802;37.032;2022-07-01T12:12:56;5.63;;;1.17;;
67514;SDS011;60646;55.802;37.032;2022-07-01T12:15:22;6.25;;;1.10;;
67514;SDS011;60646;55.802;37.032;2022-07-01T12:17:48;1.25;;;0.55;;
67514;SDS011;60646;55.802;37.032;2022-07-01T12:20:14;4.60;;;1.15;;
67514;SDS011;60646;55.802;37.032;2022-07-01T12:22:39;0.88;;;0.70;;
67514;SDS011;60646;55.802;37.032;2022-07-01T12:25:06;1.35;;;0.60;;
67514;SDS011;60646;55.802;37.032;2022-07-01T12:27:34;1.85;;;0.70;;
67514;SDS011;60646;55.802;37.032;2022-07-01T12:30:01;0.93;;;0.70;;
67514;SDS011;60646;55.802;37.032;2022-07-01T12:32:27;1.48;;;0.55;;
67514;SDS011;60646;55.802;37.032;2022-07-01T12:34:58;2.90;;;1.00;;
67514;SDS011;60646;55.802;37.032;2022-07-01T12:39:56;1.92;;;0.88;;
67514;SDS011;60646;55.802;37.032;2022-07-01T12:44:57;6.28;;;1.10;;
67514;SDS011;60646;55.802;37.032;2022-07-01T12:47:25;1.55;;;0.70;;
67514;SDS011;60646;55.802;37.032;2022-07-01T12:53:00;1.13;;;0.80;;
67514;SDS011;60646;55.802;37.032;2022-07-01T12:58:04;1.45;;;0.80;;
67514;SDS011;60646;55.802;37.032;2022-07-01T13:00:31;2.15;;;1.13;;
67514;SDS011;60646;55.802;37.032;2022-07-01T13:02:59;1.13;;;0.77;;
67514;SDS011;60646;55.802;37.032;2022-07-01T13:05:27;2.45;;;0.77;;
67514;SDS011;60646;55.802;37.032;2022-07-01T13:07:54;0.65;;;0.65;;
67514;SDS011;60646;55.802;37.032;2022-07-01T13:10:21;1.70;;;0.60;;
67514;SDS011;60646;55.802;37.032;2022-07-01T13:12:47;2.30;;;0.80;;
67514;SDS011;60646;55.802;37.032;2022-07-01T13:15:14;4.32;;;0.88;;
67514;SDS011;60646;55.802;37.032;2022-07-01T13:17:41;1.60;;;1.02;;
67514;SDS011;60646;55.802;37.032;2022-07-01T13:23:35;3.30;;;0.98;;
67514;SDS011;60646;55.802;37.032;2022-07-01T13:26:01;0.85;;;0.70;;
67514;SDS011;60646;55.802;37.032;2022-07-01T13:28:27;1.35;;;0.68;;
67514;SDS011;60646;55.802;37.032;2022-07-01T13:30:53;1.25;;;0.63;;
67514;SDS011;60646;55.802;37.032;2022-07-01T13:33:37;0.93;;;0.70;;
67514;SDS011;60646;55.802;37.032;2022-07-01T13:36:03;0.65;;;0.60;;
67514;SDS011;60646;55.802;37.032;2022-07-01T13:38:29;2.22;;;1.50;;
67514;SDS011;60646;55.802;37.032;2022-07-01T13:40:54;1.35;;;0.95;;
67514;SDS011;60646;55.802;37.032;2022-07-01T13:43:20;4.82;;;4.32;;
67514;SDS011;60646;55.802;37.032;2022-07-01T13:45:46;2.00;;;1.33;;
67514;SDS011;60646;55.802;37.032;2022-07-01T13:48:12;1.80;;;1.50;;
67514;SDS011;60646;55.802;37.032;2022-07-01T13:50:38;3.25;;;1.50;;
67514;SDS011;60646;55.802;37.032;2022-07-01T13:53:04;2.45;;;1.00;;
67514;SDS011;60646;55.802;37.032;2022-07-01T13:55:30;4.15;;;1.10;;
67514;SDS011;60646;55.802;37.032;2022-07-01T13:57:55;2.75;;;0.80;;
67514;SDS011;60646;55.802;37.032;2022-07-01T14:00:21;2.20;;;0.82;;
67514;SDS011;60646;55.802;37.032;2022-07-01T14:02:47;11.35;;;2.35;;
67514;SDS011;60646;55.802;37.032;2022-07-01T14:05:12;1.55;;;0.75;;
67514;SDS011;60646;55.802;37.032;2022-07-01T14:07:39;1.52;;;0.80;;
67514;SDS011;60646;55.802;37.032;2022-07-01T14:10:05;2.97;;;2.40;;
67514;SDS011;60646;55.802;37.032;2022-07-01T14:12:31;3.35;;;2.53;;
67514;SDS011;60646;55.802;37.032;2022-07-01T14:14:57;1.23;;;1.00;;
67514;SDS011;60646;55.802;37.032;2022-07-01T14:17:24;3.25;;;1.02;;
67514;SDS011;60646;55.802;37.032;2022-07-01T14:19:51;3.35;;;0.93;;
67514;SDS011;60646;55.802;37.032;2022-07-01T14:22:17;2.42;;;0.80;;
67514;SDS011;60646;55.802;37.032;2022-07-01T14:24:43;4.40;;;1.00;;
67514;SDS011;60646;55.802;37.032;2022-07-01T14:27:08;1.83;;;0.82;;
67514;SDS011;60646;55.802;37.032;2022-07-01T14:29:35;6.70;;;1.30;;
67514;SDS011;60646;55.802;37.032;2022-07-01T14:32:00;0.68;;;0.68;;
67514;SDS011;60646;55.802;37.032;2022-07-01T14:34:26;0.98;;;0.70;;
67514;SDS011;60646;55.802;37.032;2022-07-01T14:36:52;2.83;;;0.80;;
67514;SDS011;60646;55.802;37.032;2022-07-01T14:39:18;1.85;;;0.70;;
67514;SDS011;60646;55.802;37.032;2022-07-01T14:41:44;4.78;;;1.08;;
67514;SDS011;60646;55.802;37.032;2022-07-01T14:44:15;4.20;;;1.00;;
67514;SDS011;60646;55.802;37.032;2022-07-01T14:46:42;0.80;;;0.80;;
67514;SDS011;60646;55.802;37.032;2022-07-01T14:49:07;6.10;;;1.30;;
67514;SDS011;60646;55.802;37.032;2022-07-01T14:51:33;1.15;;;0.95;;
67514;SDS011;60646;55.802;37.032;2022-07-01T14:54:00;1.20;;;0.93;;
67514;SDS011;60646;55.802;37.032;2022-07-01T14:56:27;2.72;;;0.70;;
67514;SDS011;60646;55.802;37.032;2022-07-01T14:58:54;3.38;;;1.00;;
67514;SDS011;60646;55.802;37.032;2022-07-01T15:01:20;1.10;;;0.68;;
67514;SDS011;60646;55.802;37.032;2022-07-01T15:03:45;1.42;;;0.88;;
67514;SDS011;60646;55.802;37.032;2022-07-01T15:06:12;1.75;;;0.75;;
67514;SDS011;60646;55.802;37.032;2022-07-01T15:08:38;1.15;;;0.90;;
67514;SDS011;60646;55.802;37.032;2022-07-01T15:11:05;4.78;;;0.80;;
67514;SDS011;60646;55.802;37.032;2022-07-01T15:13:31;2.40;;;0.77;;
67514;SDS011;60646;55.802;37.032;2022-07-01T15:16:00;3.38;;;0.60;;
67514;SDS011;60646;55.802;37.032;2022-07-01T15:18:27;1.42;;;0.80;;
67514;SDS011;60646;55.802;37.032;2022-07-01T15:20:54;0.98;;;0.70;;
67514;SDS011;60646;55.802;37.032;2022-07-01T15:23:20;1.73;;;0.77;;
67514;SDS011;60646;55.802;37.032;2022-07-01T15:25:46;1.38;;;1.00;;
67514;SDS011;60646;55.802;37.032;2022-07-01T15:28:12;1.50;;;0.77;;
67514;SDS011;60646;55.802;37.032;2022-07-01T15:30:38;2.38;;;1.00;;